KBRD/BRD METAR and TAF weather

Enter ICAO airport designator
Station Type Date Time Source
KBRD METAR 2019/08/21 21:53 UTC NOAA

KBRD 212153Z AUTO 36007KT 10SM FEW070 23/09 A3007 RMK AO2 SLP182 T02280094


Station Type Date Time Source
KBRD Decoded METAR 2019/08/21 21:53 UTC NOAA

Station name not available
Aug 21, 2019 - 05:53 PM EDT / 2019.08.21 2153 UTC
Wind: from the N (360 degrees) at 8 MPH (7 KT):0
Visibility: 10 mile(s):0
Sky conditions: mostly clear
Temperature: 73.0 F (22.8 C)
Dew Point: 48.9 F (9.4 C)
Relative Humidity: 42%
Pressure (altimeter): 30.07 in. Hg (1018 hPa)
ob: KBRD 212153Z AUTO 36007KT 10SM FEW070 23/09 A3007 RMK AO2 SLP182 T02280094
cycle: 22

Station Type Date Time Source
KBRD TAF 2019/08/21 18:39 UTC NOAA

KBRD 211736Z 2118/2218 31009KT P6SM FEW050
FM220000 VRB03KT P6SM SKC
FM221400 01004KT P6SM SKC

Example: see airport list